Time;durP1;ratioP1;P1;durP2;ratioP2;P2;SDS_P1;SDS_P2;PMS_P1;PMS_P2;Temp;Humidity;BMP_temperature;BMP_pressure;BME280_temperature;BME280_humidity;BME280_pressure;Samples;Min_cycle;Max_cycle;Signal;HPM_P1;HPM_P2
2021/05/13 00:11:20;;;;;;;2.17;1.02;;;11.80;99.90;;;;;;5119214;27;20177;-83
2021/05/13 00:14:07;;;;;;;3.90;1.05;;;11.80;99.90;;;;;;5093806;28;20035;-83
2021/05/13 00:20:16;;;;;;;2.22;0.95;;;11.80;99.90;;;;;;5095591;27;20216;-84
2021/05/13 00:22:42;;;;;;;1.45;0.88;;;11.70;99.90;;;;;;5111541;27;20088;-84
2021/05/13 00:25:27;;;;;;;2.83;1.00;;;11.70;99.90;;;;;;5104139;28;20043;-83
2021/05/13 00:27:54;;;;;;;4.03;0.88;;;11.70;99.90;;;;;;5091567;28;20108;-82
2021/05/13 00:30:21;;;;;;;2.92;0.95;;;11.60;99.90;;;;;;5105711;27;20099;-84
2021/05/13 00:32:47;;;;;;;3.25;1.10;;;11.60;99.90;;;;;;5113262;27;20059;-83
2021/05/13 00:35:17;;;;;;;3.25;1.05;;;11.50;99.90;;;;;;5108149;28;20476;-83
2021/05/13 00:37:44;;;;;;;3.00;1.00;;;11.50;99.90;;;;;;5091308;28;20091;-84
2021/05/13 00:40:12;;;;;;;3.85;1.00;;;11.50;99.90;;;;;;5097575;28;20039;-84
2021/05/13 00:42:56;;;;;;;3.20;1.00;;;11.60;99.90;;;;;;5091403;28;20071;-84
2021/05/13 00:48:33;;;;;;;2.15;1.27;;;11.50;99.90;;;;;;5106271;27;20506;-83
2021/05/13 00:50:59;;;;;;;2.45;1.00;;;11.50;99.90;;;;;;5092934;28;20035;-83
2021/05/13 00:53:47;;;;;;;2.25;0.98;;;11.50;99.90;;;;;;5091385;28;20501;-83
2021/05/13 01:02:42;;;;;;;2.83;0.98;;;11.40;99.90;;;;;;5115688;28;20089;-85
2021/05/13 01:05:27;;;;;;;2.35;0.95;;;11.40;99.90;;;;;;5114264;28;20028;-84
2021/05/13 01:08:11;;;;;;;2.58;0.95;;;11.30;99.90;;;;;;5115066;28;20035;-84
2021/05/13 01:10:56;;;;;;;2.78;0.93;;;11.30;99.90;;;;;;5097009;28;20092;-83
2021/05/13 01:13:45;;;;;;;4.15;1.25;;;11.30;99.90;;;;;;5113575;28;20040;-84
2021/05/13 01:25:51;;;;;;;2.72;1.15;;;11.20;99.90;;;;;;5115114;28;20489;-83
2021/05/13 01:28:18;;;;;;;3.25;1.33;;;11.20;99.90;;;;;;5114024;28;20495;-83
2021/05/13 01:31:03;;;;;;;3.30;1.33;;;11.10;99.90;;;;;;5113605;28;20036;-84
2021/05/13 01:33:29;;;;;;;2.55;1.30;;;11.10;99.90;;;;;;5113834;28;20036;-84
2021/05/13 01:41:42;;;;;;;3.63;2.03;;;11.10;99.90;;;;;;5115055;28;20046;-84
2021/05/13 01:44:28;;;;;;;3.47;1.60;;;11.00;99.90;;;;;;5113089;28;20115;-84
2021/05/13 01:46:53;;;;;;;4.63;1.92;;;11.00;99.90;;;;;;5113287;28;20035;-84
2021/05/13 01:49:39;;;;;;;4.63;1.70;;;10.90;99.90;;;;;;5113366;28;20058;-84
2021/05/13 01:52:05;;;;;;;3.33;1.90;;;10.90;99.90;;;;;;5113378;28;20429;-83
2021/05/13 01:54:32;;;;;;;4.65;2.08;;;10.90;99.90;;;;;;5114299;28;20035;-84
2021/05/13 01:59:50;;;;;;;4.25;2.03;;;10.80;99.90;;;;;;5135124;27;20050;-85
2021/05/13 02:05:21;;;;;;;3.80;1.65;;;10.80;99.90;;;;;;5135227;27;20034;-84
2021/05/13 02:08:05;;;;;;;4.20;1.92;;;10.80;99.90;;;;;;5116412;27;20054;-84
2021/05/13 02:13:35;;;;;;;4.53;1.65;;;10.80;99.90;;;;;;5134604;27;20064;-84
2021/05/13 02:19:03;;;;;;;3.08;1.33;;;10.70;99.90;;;;;;5134248;27;20034;-84
2021/05/13 02:22:06;;;;;;;4.57;1.83;;;10.70;99.90;;;;;;5134724;27;20494;-85
2021/05/13 02:24:50;;;;;;;3.25;1.63;;;10.70;99.90;;;;;;5116183;27;20095;-84
2021/05/13 02:30:56;;;;;;;4.63;1.70;;;10.60;99.90;;;;;;5134990;27;20084;-85
2021/05/13 02:33:22;;;;;;;4.95;1.77;;;10.50;99.90;;;;;;5134378;28;20063;-84
2021/05/13 02:36:26;;;;;;;3.42;1.58;;;10.50;99.90;;;;;;5116358;28;20495;-85
2021/05/13 02:38:52;;;;;;;3.10;1.50;;;10.60;99.90;;;;;;5115935;28;20070;-84
2021/05/13 02:41:17;;;;;;;3.53;1.70;;;10.50;99.90;;;;;;5116273;28;20077;-84
2021/05/13 02:44:02;;;;;;;3.50;1.65;;;10.50;99.90;;;;;;5117560;27;20035;-84
2021/05/13 02:52:15;;;;;;;3.55;1.80;;;10.40;99.90;;;;;;5138760;27;20127;-85
2021/05/13 02:57:26;;;;;;;4.88;1.77;;;10.40;99.90;;;;;;5138637;27;20126;-84
2021/05/13 03:00:01;;;;;;;4.60;1.98;;;10.30;99.90;;;;;;5138389;27;20122;-84
2021/05/13 03:02:27;;;;;;;4.80;1.90;;;10.30;99.90;;;;;;5120089;27;20042;-84
2021/05/13 03:05:31;;;;;;;4.25;1.90;;;10.30;99.90;;;;;;5119235;27;20031;-84
2021/05/13 03:08:04;;;;;;;4.18;2.00;;;10.30;99.90;;;;;;5119699;27;20059;-84
2021/05/13 03:12:56;;;;;;;3.67;1.90;;;10.20;99.90;;;;;;5138105;27;20272;-84
2021/05/13 03:15:40;;;;;;;3.05;2.10;;;10.20;99.90;;;;;;5137858;27;20046;-84
2021/05/13 03:24:27;;;;;;;3.42;1.77;;;10.20;99.90;;;;;;5137779;27;20042;-84
2021/05/13 03:30:25;;;;;;;5.05;1.73;;;10.10;99.90;;;;;;5137980;27;20050;-84
2021/05/13 03:33:10;;;;;;;3.65;1.80;;;10.10;99.90;;;;;;5119289;27;20043;-83
2021/05/13 03:39:35;;;;;;;2.97;2.00;;;10.00;99.90;;;;;;5137698;27;20083;-85
2021/05/13 03:42:01;;;;;;;4.63;2.20;;;10.00;99.90;;;;;;5119274;27;20031;-84
2021/05/13 03:44:46;;;;;;;4.85;2.30;;;10.00;99.90;;;;;;5137639;27;20507;-84
2021/05/13 03:47:30;;;;;;;4.03;1.98;;;10.00;99.90;;;;;;5119208;27;20035;-84
2021/05/13 03:53:18;;;;;;;3.42;1.85;;;9.90;99.90;;;;;;5137199;27;20056;-84
2021/05/13 03:56:03;;;;;;;5.22;2.33;;;9.90;99.90;;;;;;5118141;27;20049;-84
2021/05/13 04:02:05;;;;;;;4.63;2.13;;;9.90;99.90;;;;;;5137504;27;20046;-85
2021/05/13 04:04:31;;;;;;;4.93;2.40;;;9.90;99.90;;;;;;5136922;27;20031;-84
2021/05/13 04:07:35;;;;;;;4.72;2.38;;;9.80;99.90;;;;;;5118870;27;20111;-84
2021/05/13 04:10:20;;;;;;;3.72;2.10;;;9.90;99.90;;;;;;5118394;27;20571;-84
2021/05/13 04:13:08;;;;;;;4.70;2.47;;;9.80;99.90;;;;;;5118186;27;20035;-84
2021/05/13 04:18:56;;;;;;;5.43;2.77;;;9.80;99.90;;;;;;5137078;27;20038;-84
2021/05/13 04:21:22;;;;;;;5.05;2.50;;;9.80;99.90;;;;;;5118244;27;20046;-84
2021/05/13 04:23:49;;;;;;;5.32;2.63;;;9.80;99.90;;;;;;5118551;27;20030;-84
2021/05/13 04:26:15;;;;;;;5.03;2.67;;;9.80;99.90;;;;;;5118234;27;20062;-85
2021/05/13 04:28:41;;;;;;;4.85;2.58;;;9.90;99.90;;;;;;5136370;27;20058;-85
2021/05/13 04:31:06;;;;;;;5.18;3.05;;;9.90;99.90;;;;;;5117765;27;20106;-84
2021/05/13 04:33:51;;;;;;;4.47;2.78;;;9.90;99.90;;;;;;5118237;27;20126;-84
2021/05/13 04:36:17;;;;;;;7.93;3.20;;;10.00;99.90;;;;;;5118232;27;20042;-84
2021/05/13 04:44:12;;;;;;;7.78;2.90;;;10.00;99.90;;;;;;5136347;27;20047;-85
2021/05/13 04:46:38;;;;;;;7.55;3.70;;;10.10;99.90;;;;;;5117740;27;20027;-84
2021/05/13 04:49:23;;;;;;;5.28;3.15;;;10.10;99.90;;;;;;5136411;27;20114;-84
2021/05/13 04:54:56;;;;;;;5.78;3.63;;;10.20;99.90;;;;;;5135948;27;20091;-85
2021/05/13 05:01:03;;;;;;;5.55;2.97;;;10.30;99.90;;;;;;5135880;27;20081;-84
2021/05/13 05:03:48;;;;;;;5.53;3.20;;;10.30;99.90;;;;;;5116505;27;20062;-84
2021/05/13 05:06:15;;;;;;;6.85;4.53;;;10.40;99.90;;;;;;5117033;27;20045;-84
2021/05/13 05:08:42;;;;;;;7.97;3.30;;;10.50;99.90;;;;;;5117350;27;20035;-84
2021/05/13 05:11:08;;;;;;;6.70;3.80;;;10.50;99.90;;;;;;5117345;27;20551;-84
2021/05/13 05:16:20;;;;;;;6.35;3.40;;;10.60;99.90;;;;;;5135660;27;20035;-85
2021/05/13 05:18:45;;;;;;;7.40;4.60;;;10.70;99.90;;;;;;5117258;27;20027;-85
2021/05/13 05:21:50;;;;;;;6.68;3.90;;;10.70;99.90;;;;;;5116807;27;20178;-85
2021/05/13 05:24:16;;;;;;;5.57;3.95;;;10.80;99.90;;;;;;5117373;27;20356;-85
2021/05/13 05:27:01;;;;;;;5.85;3.92;;;10.80;99.90;;;;;;5117537;27;20042;-85
2021/05/13 05:32:31;;;;;;;6.85;4.75;;;10.90;99.90;;;;;;5124804;27;20093;-85
2021/05/13 05:35:00;;;;;;;5.85;4.10;;;11.00;99.90;;;;;;5100741;27;20077;-86
2021/05/13 05:37:26;;;;;;;7.63;5.22;;;11.10;99.90;;;;;;5104316;27;20055;-85
2021/05/13 05:39:52;;;;;;;6.78;4.85;;;11.10;99.90;;;;;;5105825;27;20062;-84
2021/05/13 05:45:22;;;;;;;6.60;5.18;;;11.30;99.90;;;;;;5119456;27;20136;-84
2021/05/13 05:47:50;;;;;;;8.73;6.30;;;11.40;99.90;;;;;;5124734;27;20024;-85
2021/05/13 05:50:34;;;;;;;13.73;11.45;;;11.50;99.90;;;;;;5103717;27;20035;-86
2021/05/13 05:53:01;;;;;;;14.77;10.27;;;11.60;99.90;;;;;;5105866;27;20718;-85
2021/05/13 05:55:27;;;;;;;12.75;9.25;;;11.60;99.90;;;;;;5124870;27;20403;-85
2021/05/13 05:57:54;;;;;;;9.82;8.60;;;11.70;99.90;;;;;;5124283;27;20036;-85
2021/05/13 06:00:39;;;;;;;12.73;11.07;;;11.80;99.90;;;;;;5123997;27;20411;-85
2021/05/13 06:06:08;;;;;;;13.15;10.68;;;11.90;99.90;;;;;;5120119;27;20494;-86
2021/05/13 06:08:53;;;;;;;11.88;9.13;;;12.00;99.90;;;;;;5121513;27;20536;-86
2021/05/13 06:14:05;;;;;;;11.48;8.10;;;12.20;99.90;;;;;;5123738;27;20472;-85
2021/05/13 06:16:50;;;;;;;10.32;7.88;;;12.20;99.90;;;;;;5120791;27;20063;-86
2021/05/13 06:22:03;;;;;;;10.40;7.68;;;12.30;99.90;;;;;;5130610;27;20399;-86
2021/05/13 06:24:29;;;;;;;10.88;8.88;;;12.40;99.90;;;;;;5103985;27;20506;-85
2021/05/13 06:36:30;;;;;;;10.60;8.10;;;12.60;99.90;;;;;;5121664;28;20037;-84
2021/05/13 06:38:59;;;;;;;12.43;10.10;;;12.70;99.90;;;;;;5104751;28;20785;-83
2021/05/13 06:41:25;;;;;;;12.93;10.90;;;12.80;99.90;;;;;;5103917;28;20068;-85
2021/05/13 06:43:52;;;;;;;12.30;9.55;;;12.80;99.90;;;;;;5103682;28;20050;-84
2021/05/13 06:49:40;;;;;;;12.75;10.18;;;12.90;99.90;;;;;;5122966;28;20034;-84
2021/05/13 07:00:57;;;;;;;12.50;10.13;;;13.10;99.90;;;;;;5122601;28;20042;-83
2021/05/13 07:04:04;;;;;;;11.20;9.50;;;13.20;99.90;;;;;;5121045;28;20035;-84
2021/05/13 07:07:07;;;;;;;12.57;10.07;;;13.30;99.90;;;;;;5106281;28;20253;-84
2021/05/13 07:09:33;;;;;;;13.90;12.50;;;13.30;99.90;;;;;;5103281;28;20080;-85
2021/05/13 07:12:18;;;;;;;16.90;13.57;;;13.40;99.90;;;;;;5112665;28;20118;-85
2021/05/13 07:15:03;;;;;;;14.73;12.32;;;13.50;99.90;;;;;;5128161;28;20055;-84
2021/05/13 07:20:33;;;;;;;16.70;13.05;;;13.60;99.90;;;;;;5121790;28;20046;-86
2021/05/13 07:23:19;;;;;;;14.88;12.27;;;13.60;99.90;;;;;;5124412;28;20161;-85
2021/05/13 07:26:03;;;;;;;12.15;9.65;;;13.70;99.90;;;;;;5101935;28;20061;-86
2021/05/13 07:29:08;;;;;;;12.52;10.93;;;13.70;99.90;;;;;;5103319;28;20472;-85
2021/05/13 07:31:34;;;;;;;;;;;13.80;99.90;;;;;;5105156;27;20472;-85
2021/05/13 07:34:19;;;;;;;11.45;9.80;;;13.80;99.90;;;;;;5106513;27;19949;-86
2021/05/13 07:36:45;;;;;;;12.95;11.55;;;13.90;99.90;;;;;;5111306;27;20027;-86
2021/05/13 07:39:11;;;;;;;15.40;10.55;;;14.00;99.90;;;;;;5108562;28;20118;-86
2021/05/13 07:47:06;;;;;;;10.63;9.10;;;14.20;99.90;;;;;;5115084;28;20122;-86
2021/05/13 07:49:53;;;;;;;11.30;8.73;;;14.20;99.90;;;;;;5115075;28;20471;-86
2021/05/13 07:52:19;;;;;;;12.05;10.13;;;14.20;99.90;;;;;;5096979;28;20035;-85
2021/05/13 07:54:45;;;;;;;13.88;11.85;;;14.20;99.90;;;;;;5079748;28;20064;-86
2021/05/13 07:57:13;;;;;;;14.40;12.85;;;14.20;99.90;;;;;;5115166;28;20055;-85
2021/05/13 07:59:42;;;;;;;13.30;10.35;;;14.20;99.90;;;;;;5113235;28;20085;-87
2021/05/13 08:02:27;;;;;;;14.55;10.70;;;14.30;99.90;;;;;;5114886;27;20047;-86
2021/05/13 08:04:53;;;;;;;11.68;10.05;;;14.40;99.90;;;;;;5096624;28;20032;-85
2021/05/13 08:07:37;;;;;;;11.35;9.45;;;14.60;99.90;;;;;;5108674;27;20035;-85
2021/05/13 08:10:05;;;;;;;12.75;10.60;;;14.60;99.90;;;;;;5116733;27;20031;-85
2021/05/13 08:12:31;;;;;;;11.80;9.52;;;14.70;99.90;;;;;;5116744;27;20069;-86
2021/05/13 08:15:35;;;;;;;11.82;9.75;;;14.70;99.90;;;;;;5135397;27;20023;-86
2021/05/13 08:18:01;;;;;;;11.38;9.13;;;14.80;99.90;;;;;;5116683;27;20032;-86
2021/05/13 08:20:32;;;;;;;11.23;9.80;;;14.90;99.90;;;;;;5108126;27;20092;-87
2021/05/13 08:22:59;;;;;;;15.23;12.77;;;14.90;99.90;;;;;;5106929;27;20031;-85
2021/05/13 08:25:44;;;;;;;13.93;11.43;;;15.00;99.90;;;;;;5081081;28;20035;-86
2021/05/13 08:28:10;;;;;;;11.93;10.63;;;15.10;99.90;;;;;;5100959;27;20077;-86
2021/05/13 08:30:40;;;;;;;16.08;12.68;;;15.10;99.90;;;;;;5107882;27;20069;-86
2021/05/13 08:33:24;;;;;;;15.57;13.50;;;15.20;99.90;;;;;;5104847;27;20050;-85
2021/05/13 08:35:51;;;;;;;15.38;13.52;;;15.30;99.90;;;;;;5120566;27;20042;-86
2021/05/13 08:38:36;;;;;;;15.90;12.80;;;15.40;99.90;;;;;;5090135;27;20380;-86
2021/05/13 08:41:02;;;;;;;12.57;10.88;;;15.50;99.90;;;;;;5116997;27;20027;-85
2021/05/13 08:46:19;;;;;;;12.52;10.30;;;15.60;99.90;;;;;;5122456;27;20042;-83
2021/05/13 08:48:46;;;;;;;12.55;11.10;;;15.70;99.90;;;;;;5105425;27;20043;-84
2021/05/13 08:51:13;;;;;;;13.18;10.75;;;15.80;99.90;;;;;;5105480;27;20398;-84
2021/05/13 08:53:54;;;;;;;11.50;9.60;;;15.90;99.90;;;;;;5088148;27;20063;-85
2021/05/13 08:56:42;;;;;;;12.27;10.65;;;16.00;99.90;;;;;;5086697;28;20043;-85
2021/05/13 08:59:08;;;;;;;10.98;8.98;;;16.10;99.90;;;;;;5117338;28;20062;-84
2021/05/13 09:01:53;;;;;;;9.75;7.68;;;16.30;99.90;;;;;;5105816;28;20049;-85
2021/05/13 09:07:44;;;;;;;8.45;7.43;;;16.60;99.90;;;;;;5112706;28;20112;-84
2021/05/13 09:13:26;;;;;;;8.90;7.13;;;16.80;99.90;;;;;;5112553;28;20103;-83
2021/05/13 09:16:30;;;;;;;11.30;9.45;;;17.00;99.90;;;;;;5094096;28;20042;-83
2021/05/13 09:18:58;;;;;;;9.93;8.85;;;17.10;99.90;;;;;;5094224;28;20032;-84
2021/05/13 09:21:24;;;;;;;12.48;10.85;;;17.30;99.90;;;;;;5112233;28;20036;-84
2021/05/13 09:23:54;;;;;;;9.95;8.40;;;17.30;99.10;;;;;;5098496;28;20259;-84
2021/05/13 09:32:19;;;;;;;;;;;17.80;99.90;;;;;;5131918;28;20294;-84
2021/05/13 09:34:46;;;;;;;5.68;4.18;;;19.00;99.90;;;;;;5104385;28;20282;-85
2021/05/13 09:37:12;;;;;;;6.00;3.88;;;20.50;98.80;;;;;;5114214;28;20070;-84
2021/05/13 09:39:46;;;;;;;5.97;2.70;;;21.60;97.20;;;;;;5113640;28;20031;-85
2021/05/13 09:45:54;;;;;;;6.32;4.22;;;23.60;94.70;;;;;;5133055;28;20418;-86
2021/05/13 09:48:40;;;;;;;4.65;3.00;;;24.60;92.70;;;;;;5113656;28;20088;-87
2021/05/13 09:51:29;;;;;;;5.80;2.75;;;25.20;92.10;;;;;;5114740;28;20084;-85
2021/05/13 09:54:18;;;;;;;6.07;3.20;;;25.60;90.60;;;;;;5110432;28;20030;-86
2021/05/13 09:56:49;;;;;;;5.50;2.40;;;25.80;88.70;;;;;;5047675;28;837569;-86
2021/05/13 09:59:39;;;;;;;3.63;1.90;;;25.90;86.10;;;;;;5100509;28;20031;-87
2021/05/13 10:02:23;;;;;;;4.30;1.70;;;26.30;85.00;;;;;;5107895;28;20468;-87
2021/05/13 10:05:07;;;;;;;3.58;1.88;;;26.80;83.50;;;;;;5096243;28;20019;-87
2021/05/13 10:07:53;;;;;;;3.45;1.77;;;27.00;81.80;;;;;;5096608;28;20035;-87
2021/05/13 10:10:38;;;;;;;3.40;1.40;;;27.50;79.70;;;;;;5114415;28;20121;-86
2021/05/13 10:19:12;;;;;;;4.25;1.40;;;27.10;72.80;;;;;;5098364;28;20008;-85
2021/05/13 10:25:03;;;;;;;3.78;1.98;;;25.40;72.80;;;;;;5113462;28;20070;-85
2021/05/13 10:30:15;;;;;;;4.97;1.90;;;26.30;69.30;;;;;;5098132;28;20082;-85
2021/05/13 10:33:02;;;;;;;4.63;2.15;;;27.00;69.40;;;;;;5113446;28;20514;-85
2021/05/13 10:38:14;;;;;;;3.05;1.85;;;27.70;67.70;;;;;;5113789;28;20042;-86
2021/05/13 10:40:48;;;;;;;4.35;2.03;;;28.10;65.80;;;;;;5095606;28;20044;-85
2021/05/13 10:45:58;;;;;;;5.03;2.72;;;27.30;64.40;;;;;;5114256;28;20174;-85
2021/05/13 10:51:28;;;;;;;7.07;4.47;;;27.70;63.70;;;;;;5114656;28;20096;-87
2021/05/13 10:54:12;;;;;;;5.47;3.10;;;27.60;62.40;;;;;;5079843;28;20107;-85
2021/05/13 10:56:38;;;;;;;7.07;3.40;;;27.50;62.50;;;;;;5069470;28;20054;-84
2021/05/13 10:59:14;;;;;;;6.68;3.45;;;27.70;61.80;;;;;;5062211;28;20064;-84
2021/05/13 11:05:38;;;;;;;4.40;2.30;;;27.50;60.30;;;;;;5096592;28;20505;-85
2021/05/13 11:11:27;;;;;;;4.88;2.45;;;28.30;61.00;;;;;;5099677;28;20067;-85
2021/05/13 11:13:53;;;;;;;4.70;2.72;;;28.70;61.40;;;;;;5079579;28;20028;-85
2021/05/13 11:16:59;;;;;;;3.78;1.65;;;29.00;60.60;;;;;;5079254;28;20051;-85
2021/05/13 11:22:10;;;;;;;3.25;1.90;;;29.20;60.20;;;;;;5097469;28;20065;-85
2021/05/13 11:24:40;;;;;;;3.08;1.63;;;29.10;60.40;;;;;;5097906;28;20053;-87
2021/05/13 11:27:10;;;;;;;4.95;2.15;;;29.40;60.10;;;;;;5097992;28;20032;-86
2021/05/13 11:29:51;;;;;;;4.70;1.95;;;29.50;58.70;;;;;;5098721;28;20039;-86
2021/05/13 11:32:54;;;;;;;3.67;1.83;;;29.70;57.10;;;;;;5063830;28;20040;-84
2021/05/13 11:35:22;;;;;;;3.67;1.77;;;29.50;57.10;;;;;;5097580;28;20031;-85
2021/05/13 11:38:14;;;;;;;4.88;1.90;;;29.60;56.00;;;;;;5079411;28;20119;-86
2021/05/13 11:41:17;;;;;;;2.88;1.58;;;29.60;55.60;;;;;;5079783;28;20481;-84
2021/05/13 11:43:45;;;;;;;3.67;1.98;;;29.80;55.50;;;;;;5078539;28;20040;-86
2021/05/13 11:48:57;;;;;;;4.15;1.50;;;30.10;54.50;;;;;;5110923;28;20124;-85
2021/05/13 11:51:31;;;;;;;4.07;1.40;;;30.40;55.60;;;;;;5098648;28;20032;-85
2021/05/13 11:59:53;;;;;;;3.88;1.67;;;31.30;53.30;;;;;;5137042;27;20395;-83
2021/05/13 12:02:18;;;;;;;3.78;1.73;;;31.30;52.30;;;;;;5118901;27;20146;-85
2021/05/13 12:05:04;;;;;;;3.47;1.80;;;31.00;51.60;;;;;;5137012;27;20471;-86
2021/05/13 12:07:30;;;;;;;3.17;1.35;;;30.80;52.10;;;;;;5118326;27;20039;-86
2021/05/13 12:12:41;;;;;;;3.38;1.95;;;31.40;52.40;;;;;;5132624;27;20038;-86
2021/05/13 12:15:14;;;;;;;3.90;1.48;;;30.90;51.40;;;;;;5117910;27;20411;-85
2021/05/13 12:17:41;;;;;;;4.13;1.92;;;30.40;52.20;;;;;;5135354;27;20074;-86
2021/05/13 12:20:07;;;;;;;5.10;2.35;;;29.50;52.20;;;;;;5118509;27;20372;-85
2021/05/13 12:28:27;;;;;;;5.72;2.40;;;27.10;55.30;;;;;;5137028;27;20521;-84
2021/05/13 12:31:22;;;;;;;5.28;2.78;;;26.60;56.00;;;;;;5118294;27;20043;-84
2021/05/13 12:34:08;;;;;;;5.40;2.55;;;26.00;56.60;;;;;;5118338;27;20041;-84
2021/05/13 12:39:38;;;;;;;4.43;2.17;;;25.40;57.40;;;;;;5136600;27;20058;-84
2021/05/13 12:42:40;;;;;;;5.85;2.13;;;25.10;57.50;;;;;;5106271;28;20039;-84
2021/05/13 12:45:34;;;;;;;3.83;1.90;;;25.60;58.80;;;;;;5097486;28;20043;-83
2021/05/13 12:54:11;;;;;;;3.58;1.75;;;25.50;57.70;;;;;;5115365;27;20092;-84
2021/05/13 12:56:37;;;;;;;3.70;1.70;;;25.20;58.40;;;;;;5105999;27;20035;-83
2021/05/13 12:59:12;;;;;;;3.15;1.70;;;25.70;58.80;;;;;;5101872;28;20387;-83
2021/05/13 13:01:57;;;;;;;4.43;2.75;;;26.60;58.10;;;;;;5103690;27;20470;-84
2021/05/13 13:04:23;;;;;;;4.00;2.33;;;27.30;56.60;;;;;;5111275;27;20095;-83
2021/05/13 13:07:08;;;;;;;4.53;1.92;;;27.70;56.70;;;;;;5100620;28;20023;-83
2021/05/13 13:09:54;;;;;;;3.97;2.63;;;28.00;56.20;;;;;;5120820;27;20050;-84
2021/05/13 13:12:58;;;;;;;5.03;1.75;;;28.30;55.40;;;;;;5105835;27;20391;-84
2021/05/13 13:18:25;;;;;;;4.47;2.00;;;28.70;55.20;;;;;;5115482;27;20050;-83
2021/05/13 13:21:10;;;;;;;3.83;1.85;;;28.70;55.40;;;;;;5111660;27;20497;-83
2021/05/13 13:23:36;;;;;;;3.35;1.67;;;28.50;55.40;;;;;;5114943;27;20035;-84
2021/05/13 13:26:06;;;;;;;4.68;2.00;;;28.30;55.00;;;;;;5100438;27;20145;-83
2021/05/13 13:28:34;;;;;;;4.03;1.75;;;28.40;54.90;;;;;;5099254;27;20395;-84
2021/05/13 13:31:03;;;;;;;2.83;1.70;;;28.50;55.10;;;;;;5100157;27;20036;-82
2021/05/13 13:36:33;;;;;;;4.82;2.45;;;28.70;54.50;;;;;;5114143;27;20046;-83
2021/05/13 13:39:03;;;;;;;3.63;1.95;;;28.70;53.70;;;;;;5117175;27;20107;-83
2021/05/13 13:41:49;;;;;;;4.72;2.58;;;28.50;53.70;;;;;;5097479;27;20054;-81
2021/05/13 13:47:20;;;;;;;;;;;27.80;54.00;;;;;;5116234;27;20070;-83
2021/05/13 13:50:05;;;;;;;4.25;1.42;;;27.30;54.20;;;;;;5099929;28;19907;-83
2021/05/13 13:52:31;;;;;;;4.60;1.88;;;27.10;55.20;;;;;;5097186;27;20031;-83
2021/05/13 13:55:18;;;;;;;4.22;1.95;;;27.10;55.30;;;;;;5090115;27;20555;-83
2021/05/13 13:57:43;;;;;;;4.72;2.72;;;26.80;54.90;;;;;;5097724;27;20085;-83
2021/05/13 14:00:14;;;;;;;4.97;2.22;;;26.50;55.00;;;;;;5097952;28;20070;-83
2021/05/13 14:03:19;;;;;;;4.28;2.13;;;26.30;55.50;;;;;;5119244;27;20099;-82
2021/05/13 14:05:48;;;;;;;4.50;2.28;;;26.10;55.70;;;;;;5102009;27;20080;-83
2021/05/13 14:08:36;;;;;;;4.57;2.40;;;25.90;55.70;;;;;;5093619;28;20070;-83
2021/05/13 14:11:04;;;;;;;4.55;2.25;;;25.90;55.50;;;;;;5117872;27;20039;-83
2021/05/13 14:13:51;;;;;;;5.18;2.05;;;25.90;55.10;;;;;;5091731;28;20032;-83
2021/05/13 14:16:41;;;;;;;3.63;2.00;;;25.80;55.60;;;;;;5087503;28;20046;-84
2021/05/13 14:22:58;;;;;;;5.07;2.22;;;25.80;55.90;;;;;;5119692;27;20057;-85
2021/05/13 14:28:08;;;;;;;5.05;2.13;;;25.90;54.80;;;;;;5100116;28;19919;-84
2021/05/13 14:30:52;;;;;;;4.90;1.90;;;26.00;54.90;;;;;;5099320;28;20437;-84
2021/05/13 14:33:21;;;;;;;3.97;1.58;;;26.10;54.90;;;;;;5089054;28;20080;-85
2021/05/13 14:36:10;;;;;;;3.30;1.38;;;26.30;54.40;;;;;;5106605;28;20333;-84
2021/05/13 14:38:54;;;;;;;5.55;2.05;;;26.50;55.20;;;;;;5098815;28;20070;-83
2021/05/13 14:41:31;;;;;;;4.55;1.67;;;26.60;54.10;;;;;;5110546;28;20066;-84
2021/05/13 14:43:57;;;;;;;3.83;1.75;;;26.70;53.70;;;;;;5103223;28;20080;-84
2021/05/13 14:46:41;;;;;;;3.88;1.65;;;26.80;52.50;;;;;;5090376;28;20035;-84
2021/05/13 14:49:36;;;;;;;3.70;1.15;;;26.80;52.90;;;;;;5090749;28;20076;-83
2021/05/13 14:52:53;;;;;;;2.58;1.25;;;26.90;52.70;;;;;;5111540;28;20578;-84
2021/05/13 14:55:20;;;;;;;2.58;1.02;;;26.60;53.20;;;;;;5122214;28;20069;-83
2021/05/13 14:57:49;;;;;;;2.63;1.10;;;26.40;54.00;;;;;;5096133;28;20035;-83
2021/05/13 15:05:55;;;;;;;3.85;1.40;;;25.30;55.40;;;;;;5108102;28;20116;-84
2021/05/13 15:11:08;;;;;;;3.88;1.67;;;24.50;56.00;;;;;;5091896;28;20047;-83
2021/05/13 15:13:36;;;;;;;5.05;2.00;;;23.90;57.00;;;;;;5090010;28;20454;-84
2021/05/13 15:22:36;;;;;;;3.33;1.48;;;22.90;58.80;;;;;;5106837;28;20054;-85
2021/05/13 15:25:05;;;;;;;2.53;1.40;;;22.60;58.60;;;;;;5075806;28;20071;-84
2021/05/13 15:27:56;;;;;;;2.95;1.30;;;22.50;59.10;;;;;;5102608;28;20028;-84
2021/05/13 15:30:31;;;;;;;4.70;1.70;;;22.40;59.60;;;;;;5110395;28;20035;-83
2021/05/13 15:33:03;;;;;;;4.15;1.70;;;22.30;60.10;;;;;;5089011;28;20536;-84
2021/05/13 15:38:44;;;;;;;3.63;1.50;;;22.00;61.60;;;;;;5106429;28;20101;-83
2021/05/13 15:44:15;;;;;;;4.97;1.73;;;21.60;63.40;;;;;;5113078;28;20746;-83
2021/05/13 15:46:42;;;;;;;6.40;2.22;;;21.50;63.60;;;;;;5076241;28;20036;-84
2021/05/13 15:49:09;;;;;;;4.32;1.70;;;21.50;63.70;;;;;;5120973;28;20027;-83
2021/05/13 15:51:40;;;;;;;4.18;1.45;;;21.50;64.00;;;;;;5078315;27;20038;-82
2021/05/13 15:54:09;;;;;;;3.70;1.52;;;21.50;64.60;;;;;;5109590;28;20044;-82
2021/05/13 15:57:00;;;;;;;2.33;1.17;;;21.50;65.20;;;;;;5109485;28;20499;-83
2021/05/13 15:59:26;;;;;;;4.68;2.25;;;21.50;65.10;;;;;;5095821;27;20043;-82
2021/05/13 16:02:13;;;;;;;3.50;1.60;;;21.50;66.00;;;;;;5103013;28;20404;-81
2021/05/13 16:05:03;;;;;;;3.45;1.23;;;21.50;66.00;;;;;;5124354;27;20490;-82
2021/05/13 16:07:48;;;;;;;3.88;1.67;;;21.50;66.40;;;;;;5114699;27;20550;-82
2021/05/13 16:10:20;;;;;;;3.80;1.50;;;21.40;67.10;;;;;;5103664;28;20031;-83
2021/05/13 16:13:33;;;;;;;4.63;1.88;;;21.20;67.50;;;;;;5094891;28;20164;-83
2021/05/13 16:15:42;;;;;;;3.97;1.42;;;21.20;68.00;;;;;;5108441;27;20063;-82
2021/05/13 16:18:30;;;;;;;4.68;1.70;;;21.00;68.30;;;;;;5099424;28;20565;-81
2021/05/13 16:26:34;;;;;;;5.13;1.80;;;20.90;69.20;;;;;;5109961;28;20550;-83
2021/05/13 16:29:00;;;;;;;2.90;1.20;;;20.80;69.50;;;;;;5108648;27;20039;-82
2021/05/13 16:31:27;;;;;;;6.43;1.80;;;20.80;69.90;;;;;;5091558;27;20452;-82
2021/05/13 16:36:39;;;;;;;3.50;1.50;;;20.60;70.20;;;;;;5109005;27;20045;-83
2021/05/13 16:39:25;;;;;;;5.00;2.20;;;20.40;70.60;;;;;;5091529;28;20044;-83
2021/05/13 16:42:29;;;;;;;4.43;1.58;;;20.40;71.30;;;;;;5094788;28;20118;-83
2021/05/13 16:48:24;;;;;;;5.05;1.55;;;20.30;72.10;;;;;;5121327;27;20134;-82
2021/05/13 16:53:35;;;;;;;3.92;1.65;;;20.30;72.20;;;;;;5117974;27;20068;-82
2021/05/13 16:58:54;;;;;;;5.03;2.25;;;20.10;75.40;;;;;;5117409;27;20131;-82
2021/05/13 17:01:26;;;;;;;5.65;2.60;;;19.50;77.70;;;;;;5099302;28;20126;-83
2021/05/13 17:03:58;;;;;;;4.78;2.70;;;19.20;79.40;;;;;;5117429;27;20043;-84
2021/05/13 17:06:44;;;;;;;4.70;2.13;;;18.80;81.20;;;;;;5112468;27;20040;-82
2021/05/13 17:15:23;;;;;;;4.82;2.58;;;17.70;87.60;;;;;;5112997;27;20429;-83
2021/05/13 17:20:53;;;;;;;6.55;2.95;;;17.40;90.70;;;;;;5114466;27;20039;-83
2021/05/13 17:23:39;;;;;;;5.60;2.92;;;17.00;92.90;;;;;;5098917;27;20032;-83
2021/05/13 17:26:24;;;;;;;8.60;3.67;;;16.70;96.20;;;;;;5096175;27;20039;-83
2021/05/13 17:28:50;;;;;;;6.35;3.65;;;16.10;99.90;;;;;;5085540;27;20087;-85
2021/05/13 17:31:35;;;;;;;8.07;4.43;;;15.30;99.90;;;;;;5115410;27;20043;-86
2021/05/13 17:34:02;;;;;;;7.38;4.43;;;14.90;99.90;;;;;;5096955;27;20363;-89
2021/05/13 17:36:47;;;;;;;9.35;4.63;;;14.50;99.90;;;;;;5102218;27;20032;-88
2021/05/13 17:39:12;;;;;;;8.10;5.15;;;14.30;99.90;;;;;;5100549;27;20598;-89
2021/05/13 17:42:02;;;;;;;9.95;5.70;;;14.00;99.90;;;;;;5083172;27;20145;-91
2021/05/13 17:50:11;;;;;;;7.65;5.35;;;13.50;99.90;;;;;;5118167;27;20046;-93
2021/05/13 17:55:22;;;;;;;10.95;7.07;;;13.40;99.90;;;;;;5116489;27;20510;-91
2021/05/13 17:57:49;;;;;;;9.55;7.13;;;13.40;99.90;;;;;;5099750;27;20047;-91
2021/05/13 18:00:17;;;;;;;9.38;6.25;;;13.30;99.90;;;;;;5116288;27;20063;-91
2021/05/13 18:08:31;;;;;;;8.13;5.37;;;13.30;99.90;;;;;;5107340;27;20043;-94
2021/05/13 18:10:59;;;;;;;7.85;5.32;;;13.50;99.90;;;;;;5099772;27;20088;-92
2021/05/13 18:17:17;;;;;;;6.20;5.05;;;13.60;99.90;;;;;;5111002;27;20029;-93
2021/05/13 18:20:15;;;;;;;13.30;6.45;;;13.60;99.90;;;;;;5100377;27;20038;-94
2021/05/13 18:22:58;;;;;;;7.10;5.93;;;13.60;99.90;;;;;;5122812;27;20216;-92
2021/05/13 18:25:44;;;;;;;7.30;6.43;;;13.60;99.90;;;;;;5100257;28;20401;-92
2021/05/13 18:31:01;;;;;;;7.30;5.95;;;13.60;99.90;;;;;;5119928;27;20080;-93
2021/05/13 18:36:59;;;;;;;11.90;6.65;;;13.40;99.90;;;;;;5120866;27;20038;-95
2021/05/13 18:39:39;;;;;;;6.70;5.07;;;13.50;99.90;;;;;;5120483;28;20202;-95